Flight Track Log - Related Links

Times and Time Zones

All times are in EDT time to prevent confusion due to time zone crossing. See the WBR2705 flight status page for this flight to view local times or setup timezone preferences in your user account.


Time Position Orientation Groundspeed Altitude Reporting Facility
EDT Latitude Longitude Course Direction KTS MPH feet Rate Location/Type
Wed 04:07:33 PM 38.7500 -90.3833 237° Southwest 96 110 1,400  Level Gateway (St. Louis) TRACON
Wed 04:08:39 PM 38.7333 -90.4167 237° Southwest 129 148 2,100 647 Climbing Gateway (St. Louis) TRACON
Wed 04:09:15 PM 38.7150 -90.4161 179° South 124 143 2,500 673 Climbing Kansas City Center
Wed 04:10:17 PM 38.6794 -90.4192 184° South 130 150 3,200 780 Climbing Kansas City Center
Wed 04:11:18 PM 38.6364 -90.4217 183° South 132 152 4,100 774 Climbing Kansas City Center
Wed 04:12:21 PM 38.6025 -90.4244 184° South 128 147 4,800 683 Climbing Kansas City Center
Wed 04:13:21 PM 38.5672 -90.4297 187° South 126 145 5,500 576 Climbing Kansas City Center
Wed 04:14:26 PM 38.5325 -90.4331 184° South 126 145 6,000 286 Climbing Kansas City Center
Wed 04:15:27 PM 38.4928 -90.4375 185° South 136 157 6,100 50 Climbing Kansas City Center
Wed 04:16:27 PM 38.4439 -90.4414 184° South 144 166 6,100  Level Kansas City Center
Wed 04:17:32 PM 38.4022 -90.4450 184° South 148 170 6,100  Level Kansas City Center
Wed 04:18:33 PM 38.3603 -90.4483 184° South 151 174 6,100  Level Kansas City Center
Wed 04:19:33 PM 38.3186 -90.4517 184° South 150 173 6,100  Level Kansas City Center
Wed 04:20:37 PM 38.2767 -90.4556 184° South 150 173 6,100  Level Kansas City Center
Wed 04:21:40 PM 38.2350 -90.4589 184° South 150 173 6,100  Level Kansas City Center
Wed 04:22:40 PM 38.1825 -90.4625 183° South 155 178 6,100 -48 Level Kansas City Center
Wed 04:23:44 PM 38.1394 -90.4714 189° South 157 181 6,000  Descending Kansas City Center
Wed 04:24:45 PM 38.1044 -90.5022 215° Southwest 153 176 6,100 49 Climbing Kansas City Center
Wed 04:25:46 PM 38.0611 -90.5075 185° South 158 182 6,100  Level Kansas City Center
Wed 04:26:50 PM 38.0172 -90.5108 183° South 158 182 6,100 -48 Level Kansas City Center
Wed 04:27:50 PM 37.9733 -90.5139 183° South 157 181 6,000 -49 Descending Kansas City Center
Wed 04:28:53 PM 37.9211 -90.5172 183° South 157 181 6,000  Level Kansas City Center
Wed 04:29:54 PM 37.8783 -90.5206 184° South 154 177 6,000  Level Kansas City Center
Wed 04:30:57 PM 37.8336 -90.5222 182° South 159 183 6,000  Level Kansas City Center
Wed 04:31:59 PM 37.7906 -90.5256 184° South 156 180 6,000  Level Kansas City Center
Wed 04:33:00 PM 37.7467 -90.5286 183° South 157 181 6,000 48 Level Kansas City Center
Wed 04:34:04 PM 37.7039 -90.5306 182° South 156 180 6,100  Climbing Kansas City Center
Wed 04:35:04 PM 37.6517 -90.5339 183° South 155 178 6,000 -49 Descending Kansas City Center
Wed 04:36:07 PM 37.6078 -90.5364 183° South 156 180 6,000  Level Kansas City Center
Wed 04:37:11 PM 37.5639 -90.5397 183° South 158 182 6,000  Level Kansas City Center
Wed 04:38:10 PM 37.5203 -90.5433 184° South 157 181 6,000  Level Kansas City Center
Wed 04:39:14 PM 37.4764 -90.5453 182° South 157 181 6,000  Level Kansas City Center
Wed 04:40:14 PM 37.4339 -90.5483 183° South 154 177 6,000  Level Kansas City Center
Wed 04:41:18 PM 37.3817 -90.5522 183° South 156 180 6,000 48 Level Kansas City Center
Wed 04:42:18 PM 37.3367 -90.5531 181° South 155 178 6,100 48 Climbing Kansas City Center
Wed 04:43:22 PM 37.2953 -90.5553 182° South 151 174 6,100  Level Kansas City Center
Wed 04:44:23 PM 37.2511 -90.5583 183° South 156 180 6,100  Level Kansas City Center
Wed 04:45:26 PM 37.2075 -90.5625 184° South 157 181 6,100  Level Kansas City Center
Wed 04:46:27 PM 37.1642 -90.5650 183° South 157 181 6,100 48 Level Kansas City Center
Wed 04:47:31 PM 37.1117 -90.5681 183° South 157 181 6,200 48 Climbing Kansas City Center
Wed 04:48:31 PM 37.0681 -90.5711 183° South 157 181 6,200  Level Kansas City Center
Wed 04:49:35 PM 37.0233 -90.5742 183° South 159 183 6,200  Level Kansas City Center
Wed 04:50:35 PM 36.9794 -90.5767 183° South 159 183 6,200  Level Kansas City Center
Wed 04:51:37 PM 36.9325 -90.5789 182° South 161 185 6,200  Level Kansas City Center
Wed 04:52:41 PM 36.8875 -90.5811 182° South 162 186 6,200  Level Kansas City Center
Wed 04:53:57 PM 36.8214 -90.5875 184° South 163 188 6,200  Level Memphis Center
Wed 04:54:57 PM 36.7753 -90.5900 182° South 163 188 6,200 -50 Level Memphis Center
Wed 04:55:57 PM 36.7275 -90.5925 182° South 168 193 6,100 -100 Descending Memphis Center
Wed 04:56:57 PM 36.6836 -90.5975 185° South 168 193 6,000 -50 Descending Memphis Center
Wed 04:57:57 PM 36.6378 -90.6000 183° South 163 188 6,000  Level Memphis Center
Wed 04:58:57 PM 36.5961 -90.6000 180° South 163 188 6,000  Level Memphis Center
Wed 04:59:57 PM 36.5503 -90.6050 185° South 158 182 6,000  Level Memphis Center
Wed 05:00:57 PM 36.5086 -90.6075 183° South 158 182 6,000  Level Memphis Center
Wed 05:01:57 PM 36.4628 -90.6097 182° South 163 188 6,000 -350 Level Memphis Center
Wed 05:02:57 PM 36.4189 -90.6122 183° South 163 188 5,300 -700 Descending Memphis Center
Wed 05:03:57 PM 36.3753 -90.6147 183° South 163 188 4,600 -700 Descending Memphis Center
Wed 05:04:57 PM 36.3294 -90.6172 183° South 158 182 3,900 -750 Descending Memphis Center
Wed 05:05:57 PM 36.2856 -90.6222 185° South 158 182 3,100 -450 Descending Memphis Center
Wed 05:06:57 PM 36.2439 -90.6219 180° South 158 182 3,000 -50 Descending Memphis Center
Wed 05:07:57 PM 36.2000 -90.6269 185° South 158 182 3,000  Level Memphis Center
Wed 05:08:57 PM 36.1561 -90.6269 180° South 158 182 3,000  Level Memphis Center
Wed 05:09:57 PM 36.1144 -90.6319 186° South 158 182 3,000 -50 Level Memphis Center
Wed 05:10:57 PM 36.0686 -90.6317 180° South 158 182 2,900 -200 Descending Memphis Center
Wed 05:11:57 PM 36.0250 -90.6367 185° South 163 188 2,600 -300 Descending Memphis Center
Wed 05:12:57 PM 35.9831 -90.6392 183° South 158 182 2,300 -300 Descending Memphis Center
Wed 05:13:57 PM 35.9394 -90.6417 183° South 158 182 2,000 -150 Descending Memphis Center
Wed 05:14:57 PM 35.9061 -90.6467 187° South 158 182 2,000  Level Memphis Center

Login

Don't have an account? Register now (free) for customized features, flight alerts, and more!